Time;durP1;ratioP1;P1;durP2;ratioP2;P2;SDS_P1;SDS_P2;PMS_P1;PMS_P2;Temp;Humidity;BMP_temperature;BMP_pressure;BME280_temperature;BME280_humidity;BME280_pressure;Samples;Min_cycle;Max_cycle;Signal;HPM_P1;HPM_P2
2023/06/09 00:01:49;;;;;;;131.30;125.30;;;;;;;28.94;30.99;101340.25;5011406;28;20109;-71
2023/06/09 00:04:15;;;;;;;124.97;119.47;;;;;;;28.89;30.97;101339.31;5012909;28;20360;-71
2023/06/09 00:06:43;;;;;;;123.25;117.68;;;;;;;28.87;31.24;101335.28;5012058;28;20038;-71
2023/06/09 00:09:09;;;;;;;129.85;123.95;;;;;;;28.83;31.54;101337.16;5012142;28;20026;-71
2023/06/09 00:11:35;;;;;;;123.45;117.60;;;;;;;28.79;31.62;101333.47;4993031;28;20031;-71
2023/06/09 00:14:01;;;;;;;122.85;117.30;;;;;;;28.75;31.48;101335.31;4992734;28;20062;-71
2023/06/09 00:16:28;;;;;;;123.90;118.20;;;;;;;28.72;31.47;101336.84;4992765;28;20118;-71
2023/06/09 00:18:54;;;;;;;125.95;120.18;;;;;;;28.68;31.55;101341.50;4992567;28;20421;-71
2023/06/09 00:21:19;;;;;;;124.18;118.78;;;;;;;28.64;31.47;101333.03;4993008;28;20026;-71
2023/06/09 00:23:45;;;;;;;124.03;118.20;;;;;;;28.60;31.52;101334.09;4991448;28;20372;-71
2023/06/09 00:26:12;;;;;;;123.55;118.05;;;;;;;28.57;31.18;101337.56;4991666;28;20049;-71
2023/06/09 00:28:38;;;;;;;121.05;115.45;;;;;;;28.53;31.45;101337.47;4992514;28;20041;-71
2023/06/09 00:31:03;;;;;;;118.93;113.32;;;;;;;28.50;31.27;101334.56;4992985;28;20038;-71
2023/06/09 00:33:29;;;;;;;120.05;113.85;;;;;;;28.46;31.70;101338.06;4992233;28;20133;-71
2023/06/09 00:35:54;;;;;;;117.22;111.63;;;;;;;28.42;31.72;101328.75;4992912;28;20832;-71
2023/06/09 00:38:20;;;;;;;121.28;115.72;;;;;;;28.39;31.46;101323.91;4992778;28;20443;-71
2023/06/09 00:40:45;;;;;;;116.78;111.40;;;;;;;28.35;31.72;101319.41;4992418;28;20045;-71
2023/06/09 00:43:11;;;;;;;122.38;116.57;;;;;;;28.32;31.76;101322.88;4992486;28;20038;-71
2023/06/09 00:45:36;;;;;;;118.15;112.20;;;;;;;28.27;31.58;101318.38;4993023;28;20121;-71
2023/06/09 00:48:02;;;;;;;115.53;110.35;;;;;;;28.24;31.71;101319.88;4991420;28;20125;-71
2023/06/09 00:50:28;;;;;;;116.90;111.50;;;;;;;28.20;31.71;101309.84;4991398;28;20077;-71
2023/06/09 00:52:55;;;;;;;115.25;110.10;;;;;;;28.17;31.56;101307.72;4992419;28;20031;-71
2023/06/09 00:55:22;;;;;;;116.95;111.53;;;;;;;28.14;31.87;101311.22;4992519;28;20045;-71
2023/06/09 00:57:48;;;;;;;117.55;111.90;;;;;;;28.10;31.70;101316.66;4992091;28;20486;-72
2023/06/09 01:00:16;;;;;;;124.78;118.90;;;;;;;28.07;31.73;101313.75;4992397;28;20113;-71
2023/06/09 01:02:42;;;;;;;116.80;111.35;;;;;;;28.01;31.82;101316.78;4992370;28;20058;-72
2023/06/09 01:05:09;;;;;;;116.53;111.22;;;;;;;27.99;31.91;101315.50;4992692;28;20035;-71
2023/06/09 01:07:58;;;;;;;116.10;110.82;;;;;;;27.95;31.99;101323.72;4992335;28;20038;-71
2023/06/09 01:10:38;;;;;;;115.93;110.57;;;;;;;27.91;31.83;101317.25;4992085;28;20034;-71
2023/06/09 01:13:17;;;;;;;114.68;109.18;;;;;;;27.88;31.58;101323.50;5007532;28;20450;-71
2023/06/09 01:15:47;;;;;;;115.00;109.25;;;;;;;27.84;31.92;101319.78;4992695;28;20034;-71
2023/06/09 01:18:15;;;;;;;112.90;107.72;;;;;;;27.80;31.61;101316.06;4992499;28;20040;-71
2023/06/09 01:21:35;;;;;;;113.78;108.40;;;;;;;27.76;32.27;101315.94;4992120;28;20558;-72
2023/06/09 01:24:11;;;;;;;112.80;107.35;;;;;;;27.71;31.96;101318.94;4991026;28;20251;-71
2023/06/09 01:26:40;;;;;;;119.68;114.25;;;;;;;27.67;32.06;101318.03;4992613;28;20088;-71
2023/06/09 01:29:07;;;;;;;113.15;107.40;;;;;;;27.63;31.97;101312.34;4991959;28;20039;-71
2023/06/09 01:31:33;;;;;;;120.40;114.82;;;;;;;27.60;32.16;101312.22;4992379;28;20034;-71
2023/06/09 01:34:00;;;;;;;118.95;112.63;;;;;;;27.57;32.28;101313.72;4991723;28;20497;-71
2023/06/09 01:36:26;;;;;;;116.32;111.13;;;;;;;27.54;31.82;101316.38;4992007;28;20030;-71
2023/06/09 01:38:52;;;;;;;113.22;107.65;;;;;;;27.49;32.04;101300.75;4991496;28;20041;-71
2023/06/09 01:41:17;;;;;;;113.95;108.75;;;;;;;27.47;31.75;101308.63;4992040;28;20042;-71
2023/06/09 01:43:43;;;;;;;113.45;108.40;;;;;;;27.43;32.30;101302.13;4990575;28;20140;-71
2023/06/09 01:46:08;;;;;;;114.00;108.75;;;;;;;27.40;32.37;101305.59;4994684;28;20038;-71
2023/06/09 01:48:56;;;;;;;112.25;107.18;;;;;;;27.36;32.01;101301.88;4995622;28;20110;-71
2023/06/09 01:51:51;;;;;;;112.00;106.68;;;;;;;27.32;32.31;101301.78;4995840;28;20037;-71
2023/06/09 01:54:23;;;;;;;113.13;107.78;;;;;;;27.28;31.94;101294.47;4995351;28;20045;-71
2023/06/09 01:56:57;;;;;;;115.82;110.13;;;;;;;27.23;32.05;101294.69;4995490;28;20031;-71
2023/06/09 01:59:26;;;;;;;110.88;105.45;;;;;;;27.21;32.32;101297.00;4995719;28;20037;-71
2023/06/09 02:01:53;;;;;;;109.15;103.80;;;;;;;27.17;32.16;101288.53;4994993;28;20061;-71
2023/06/09 02:04:23;;;;;;;107.13;102.35;;;;;;;27.13;32.09;101291.16;4995653;28;20117;-71
2023/06/09 02:06:48;;;;;;;109.55;104.45;;;;;;;27.11;32.57;101293.47;4995306;28;20060;-71
2023/06/09 02:09:14;;;;;;;108.43;103.55;;;;;;;27.07;32.31;101287.00;4995569;28;20138;-71
2023/06/09 02:11:40;;;;;;;109.22;103.50;;;;;;;27.04;32.24;101281.31;4995553;28;20490;-71
2023/06/09 02:14:05;;;;;;;108.10;103.20;;;;;;;27.01;32.24;101284.75;4995154;28;20038;-71
2023/06/09 02:16:31;;;;;;;109.15;104.13;;;;;;;26.97;32.09;101281.88;4995330;28;20487;-71
2023/06/09 02:18:57;;;;;;;113.43;107.55;;;;;;;26.93;32.62;101278.97;4994793;28;20026;-71
2023/06/09 02:21:22;;;;;;;110.10;104.68;;;;;;;26.90;32.48;101276.06;4994920;28;20053;-71
2023/06/09 02:23:48;;;;;;;109.60;104.50;;;;;;;26.88;32.24;101275.59;5010034;28;20034;-71
2023/06/09 02:26:15;;;;;;;106.07;101.10;;;;;;;26.84;32.57;101280.19;4995133;28;20084;-71
2023/06/09 02:28:40;;;;;;;109.88;104.00;;;;;;;26.81;32.26;101283.66;4995378;28;20034;-71
2023/06/09 02:31:06;;;;;;;107.85;102.18;;;;;;;26.78;32.45;101279.59;4993465;28;20104;-71
2023/06/09 02:33:31;;;;;;;110.05;105.05;;;;;;;26.74;32.69;101275.91;4995254;28;20039;-71
2023/06/09 02:35:57;;;;;;;106.88;101.80;;;;;;;26.71;32.36;101271.00;4994197;28;20034;-71
2023/06/09 02:38:24;;;;;;;106.20;100.95;;;;;;;26.67;32.36;101281.97;4995107;28;20137;-71
2023/06/09 02:40:50;;;;;;;106.15;100.85;;;;;;;26.66;32.58;101276.75;4993882;28;20471;-71
2023/06/09 02:43:15;;;;;;;102.97;98.35;;;;;;;26.62;32.31;101278.59;4995028;28;20153;-71
2023/06/09 02:45:41;;;;;;;105.43;100.38;;;;;;;26.59;32.64;101282.88;4995298;28;20042;-71
2023/06/09 02:48:06;;;;;;;103.95;99.05;;;;;;;26.57;32.93;101276.03;4993009;28;20042;-71
2023/06/09 02:50:32;;;;;;;103.93;98.75;;;;;;;26.52;32.62;101279.78;5009718;28;20092;-71
2023/06/09 02:52:57;;;;;;;105.85;100.75;;;;;;;26.49;32.86;101284.06;4993881;28;20041;-71
2023/06/09 02:55:22;;;;;;;103.78;98.38;;;;;;;26.47;32.70;101277.22;4995175;28;20039;-71
2023/06/09 02:57:48;;;;;;;105.45;100.35;;;;;;;26.43;32.90;101273.50;4994092;28;20467;-71
2023/06/09 03:00:14;;;;;;;101.57;96.57;;;;;;;26.39;32.95;101273.38;4994527;28;20048;-71
2023/06/09 03:02:46;;;;;;;104.13;98.85;;;;;;;26.36;32.78;101268.50;4994128;28;20133;-71
2023/06/09 03:05:11;;;;;;;105.57;100.75;;;;;;;26.32;32.74;101279.44;4994387;28;20073;-71
2023/06/09 03:07:37;;;;;;;105.47;100.40;;;;;;;26.30;33.09;101278.16;4994379;28;20061;-71
2023/06/09 03:10:04;;;;;;;104.72;99.82;;;;;;;26.26;32.83;101283.56;4993970;28;20113;-71
2023/06/09 03:12:30;;;;;;;104.17;99.30;;;;;;;26.23;33.23;101264.03;4993873;28;20045;-71
2023/06/09 03:14:55;;;;;;;104.63;99.82;;;;;;;26.21;32.85;101275.47;4992605;28;20034;-71
2023/06/09 03:17:20;;;;;;;104.88;99.63;;;;;;;26.18;32.66;101278.88;4995125;28;20466;-71
2023/06/09 03:19:46;;;;;;;99.70;95.15;;;;;;;26.14;32.74;101279.91;4996190;28;20072;-71
2023/06/09 03:22:11;;;;;;;102.20;97.28;;;;;;;26.11;33.25;101282.19;4993744;28;20046;-71
2023/06/09 03:24:37;;;;;;;103.32;98.28;;;;;;;26.07;33.01;101284.00;4994323;28;20034;-71
2023/06/09 03:27:02;;;;;;;105.40;100.50;;;;;;;26.04;32.80;101289.41;5012158;28;20045;-71
2023/06/09 03:29:28;;;;;;;102.97;98.15;;;;;;;26.02;33.08;101286.16;4994215;28;20037;-70
2023/06/09 03:31:55;;;;;;;102.72;97.80;;;;;;;25.99;33.09;101287.63;4993463;28;20435;-71
2023/06/09 03:34:20;;;;;;;99.88;94.80;;;;;;;25.95;33.28;101280.34;4993725;28;20039;-70
2023/06/09 03:36:46;;;;;;;104.05;99.00;;;;;;;25.92;33.25;101290.13;4993367;28;20053;-70
2023/06/09 03:39:11;;;;;;;103.10;98.00;;;;;;;25.88;33.44;101292.75;4993789;28;20058;-70
2023/06/09 03:41:37;;;;;;;101.85;97.10;;;;;;;25.86;33.04;101294.22;4993503;28;20038;-70
2023/06/09 03:44:02;;;;;;;102.15;97.35;;;;;;;25.82;33.45;101291.25;4993297;28;20116;-70
2023/06/09 03:46:27;;;;;;;99.35;94.75;;;;;;;25.79;33.41;101291.94;4993801;28;20428;-70
2023/06/09 03:48:53;;;;;;;99.65;94.85;;;;;;;25.75;33.13;101290.97;4992682;28;20030;-71
2023/06/09 03:51:19;;;;;;;100.47;95.72;;;;;;;25.72;33.00;101297.19;4993691;28;20478;-70
2023/06/09 03:53:45;;;;;;;101.35;96.47;;;;;;;25.69;33.51;101289.53;4993896;28;20072;-70
2023/06/09 03:56:11;;;;;;;99.40;94.30;;;;;;;25.66;33.71;101287.44;4993242;28;20065;-70
2023/06/09 03:58:37;;;;;;;100.97;96.28;;;;;;;25.63;33.46;101283.41;4993414;28;20062;-70
2023/06/09 04:01:02;;;;;;;103.05;97.72;;;;;;;25.60;33.43;101288.75;4992879;28;20065;-70
2023/06/09 04:03:28;;;;;;;103.15;98.10;;;;;;;25.57;33.34;101283.91;4993704;28;20032;-71
2023/06/09 04:05:53;;;;;;;99.93;95.13;;;;;;;25.55;33.75;101286.19;4992282;28;20046;-70
2023/06/09 04:08:18;;;;;;;95.88;91.40;;;;;;;25.51;33.27;101283.28;4992544;28;20081;-70
2023/06/09 04:10:44;;;;;;;99.93;94.93;;;;;;;25.47;33.28;101291.41;5002850;28;20034;-70
2023/06/09 04:13:11;;;;;;;100.65;95.72;;;;;;;25.45;33.54;101304.78;5012288;28;20121;-70
2023/06/09 04:15:36;;;;;;;99.18;94.47;;;;;;;25.42;33.63;101310.13;5012784;28;20026;-70
2023/06/09 04:18:03;;;;;;;101.72;96.75;;;;;;;25.40;33.40;101315.19;5010977;28;20036;-70
2023/06/09 04:20:29;;;;;;;98.47;93.43;;;;;;;25.36;33.56;101317.00;5012398;28;20116;-70
2023/06/09 04:22:55;;;;;;;97.88;92.95;;;;;;;25.33;33.51;101317.66;5012347;28;20026;-70
2023/06/09 04:25:28;;;;;;;98.40;93.38;;;;;;;25.29;33.92;101314.72;5010953;28;20030;-70
2023/06/09 04:27:54;;;;;;;97.28;92.47;;;;;;;25.27;33.61;101319.75;5012496;28;20111;-70
2023/06/09 04:30:25;;;;;;;98.68;93.90;;;;;;;25.24;33.88;101310.19;5011137;28;20025;-70
2023/06/09 04:32:54;;;;;;;97.05;92.35;;;;;;;25.20;33.82;101317.53;5012304;28;20386;-70
2023/06/09 04:35:23;;;;;;;96.95;92.30;;;;;;;25.18;33.58;101319.78;5011883;28;20273;-70
2023/06/09 04:37:49;;;;;;;99.35;94.15;;;;;;;25.15;33.86;101320.44;5012146;28;20542;-70
2023/06/09 04:40:23;;;;;;;97.38;92.68;;;;;;;25.12;34.10;101312.75;5011419;28;20413;-70
2023/06/09 04:42:51;;;;;;;97.93;93.32;;;;;;;25.08;33.94;101322.88;5012165;28;20026;-70
2023/06/09 04:45:18;;;;;;;95.43;90.85;;;;;;;25.05;33.70;101310.50;4993532;28;20030;-71
2023/06/09 04:47:46;;;;;;;99.13;94.22;;;;;;;25.02;34.32;101319.47;4992781;28;20044;-70
2023/06/09 04:50:12;;;;;;;95.75;90.97;;;;;;;25.00;34.31;101321.75;4992276;28;20041;-71
2023/06/09 04:52:39;;;;;;;98.18;93.20;;;;;;;24.96;34.17;101320.75;4992607;28;20038;-70
2023/06/09 04:55:06;;;;;;;98.20;92.65;;;;;;;24.94;34.06;101320.25;5006841;28;20120;-70
2023/06/09 04:57:31;;;;;;;92.78;88.13;;;;;;;24.91;34.43;101320.91;4992369;28;20044;-70
2023/06/09 04:59:57;;;;;;;93.80;89.28;;;;;;;24.89;34.28;101328.72;4992854;28;20117;-70
2023/06/09 05:02:22;;;;;;;96.53;91.82;;;;;;;24.86;34.58;101332.13;4992314;28;20037;-70
2023/06/09 05:04:48;;;;;;;94.65;89.82;;;;;;;24.83;34.00;101330.84;4992774;28;20081;-70
2023/06/09 05:07:14;;;;;;;94.70;90.13;;;;;;;24.80;34.32;101331.50;4992330;28;20039;-70
2023/06/09 05:09:39;;;;;;;94.68;89.97;;;;;;;24.80;34.36;101327.94;4992367;28;20030;-70
2023/06/09 05:12:05;;;;;;;95.13;90.15;;;;;;;24.76;34.30;101325.00;4992124;28;20029;-70
2023/06/09 05:14:30;;;;;;;93.88;89.07;;;;;;;24.75;34.59;101330.84;4992473;28;20038;-70
2023/06/09 05:16:56;;;;;;;92.95;87.93;;;;;;;24.72;34.29;101329.56;4992809;28;20061;-70
2023/06/09 05:19:21;;;;;;;92.57;87.97;;;;;;;24.71;34.85;101329.88;4992376;28;20038;-70
2023/06/09 05:21:46;;;;;;;92.55;87.72;;;;;;;24.68;34.52;101322.22;4996195;28;20104;-70
2023/06/09 05:24:12;;;;;;;94.00;89.18;;;;;;;24.66;34.68;101322.53;4995896;28;20121;-70
2023/06/09 05:26:37;;;;;;;91.30;86.68;;;;;;;24.65;34.99;101326.47;4995983;28;20031;-70
2023/06/09 05:29:03;;;;;;;92.15;87.63;;;;;;;24.63;34.98;101328.72;4995975;28;20482;-70
2023/06/09 05:31:29;;;;;;;89.95;85.45;;;;;;;24.61;35.15;101331.81;4996133;28;20065;-70
2023/06/09 05:33:54;;;;;;;92.78;87.60;;;;;;;24.60;35.04;101329.38;5016047;28;20558;-71
2023/06/09 05:36:20;;;;;;;90.10;85.82;;;;;;;24.59;35.22;101316.69;5014759;28;20132;-70
2023/06/09 05:38:45;;;;;;;91.03;85.88;;;;;;;24.58;35.24;101326.13;5015518;28;20030;-70
2023/06/09 05:41:11;;;;;;;93.28;88.25;;;;;;;24.57;34.92;101318.97;5015077;28;20402;-70
2023/06/09 05:43:36;;;;;;;94.45;89.15;;;;;;;24.55;34.91;101324.81;5015259;28;20065;-70
2023/06/09 05:46:02;;;;;;;93.18;88.53;;;;;;;24.54;35.28;101316.84;5014831;28;20033;-71
2023/06/09 05:48:27;;;;;;;90.70;85.85;;;;;;;24.53;35.00;101321.56;5014459;28;20103;-71
2023/06/09 05:50:53;;;;;;;91.75;87.03;;;;;;;24.52;35.23;101314.44;5014644;28;20045;-70
2023/06/09 05:53:18;;;;;;;89.95;85.15;;;;;;;24.50;35.50;101313.94;5029694;28;20084;-70
2023/06/09 05:55:47;;;;;;;90.22;85.85;;;;;;;24.49;35.34;101326.09;5014864;28;20034;-70
2023/06/09 05:58:17;;;;;;;91.35;86.75;;;;;;;24.48;35.52;101321.72;5013397;28;20478;-70
2023/06/09 06:00:44;;;;;;;90.43;85.40;;;;;;;24.46;35.39;101321.22;5014686;28;20053;-70
2023/06/09 06:03:11;;;;;;;92.03;86.60;;;;;;;24.46;36.05;101321.22;5014286;28;20493;-70
2023/06/09 06:05:37;;;;;;;89.93;85.28;;;;;;;24.46;35.84;101323.19;5014701;28;20030;-70
2023/06/09 06:08:03;;;;;;;89.30;84.55;;;;;;;24.47;35.50;101330.31;5029880;28;20104;-70
2023/06/09 06:10:28;;;;;;;90.82;86.18;;;;;;;24.47;36.00;101330.31;5014369;28;20463;-70
2023/06/09 06:12:54;;;;;;;94.95;90.28;;;;;;;24.46;35.96;101323.19;5013937;28;20034;-70
2023/06/09 06:15:20;;;;;;;90.55;85.78;;;;;;;24.46;35.76;101326.75;5014358;28;20038;-71
2023/06/09 06:17:46;;;;;;;90.78;86.25;;;;;;;24.47;36.03;101324.78;5015082;28;20030;-70
2023/06/09 06:20:12;;;;;;;92.75;87.72;;;;;;;24.47;35.94;101330.31;5013729;28;20050;-70
2023/06/09 06:22:38;;;;;;;92.93;87.88;;;;;;;24.45;35.95;101335.34;5014825;28;20100;-70
2023/06/09 06:25:04;;;;;;;90.78;86.07;;;;;;;24.46;36.24;101337.00;5013511;28;20034;-70
2023/06/09 06:27:29;;;;;;;96.97;91.65;;;;;;;24.47;36.61;101330.31;5013981;28;20041;-70
2023/06/09 06:29:55;;;;;;;92.22;87.35;;;;;;;24.47;36.07;101328.41;5013707;28;20394;-70
2023/06/09 06:32:20;;;;;;;93.53;88.43;;;;;;;24.49;36.54;101330.81;5013207;28;20037;-70
2023/06/09 06:34:46;;;;;;;89.82;85.07;;;;;;;24.50;36.36;101336.03;5013562;28;20451;-70
2023/06/09 06:37:11;;;;;;;91.53;86.40;;;;;;;24.50;36.81;101332.47;5013665;28;20120;-71
2023/06/09 06:39:37;;;;;;;91.15;86.53;;;;;;;24.51;36.46;101325.78;5014257;28;20096;-70
2023/06/09 06:42:03;;;;;;;94.35;89.50;;;;;;;24.51;36.67;101326.59;5013747;28;20037;-70
2023/06/09 06:44:28;;;;;;;92.85;87.40;;;;;;;24.52;37.07;101331.00;5012827;28;20095;-70
2023/06/09 06:46:53;;;;;;;91.38;86.32;;;;;;;24.54;36.67;101322.38;5014080;28;20538;-70
2023/06/09 06:49:19;;;;;;;92.13;87.18;;;;;;;24.53;37.05;101332.59;5013440;28;20037;-70
2023/06/09 06:51:44;;;;;;;94.22;89.18;;;;;;;24.53;36.83;101332.59;5013971;28;20030;-70
2023/06/09 06:54:09;;;;;;;90.10;85.65;;;;;;;24.54;37.28;101330.66;5028129;28;20034;-70
2023/06/09 06:56:36;;;;;;;93.00;87.75;;;;;;;24.54;37.04;101334.22;5013762;28;20255;-70
2023/06/09 06:59:01;;;;;;;90.70;86.05;;;;;;;24.56;37.28;101329.19;5013772;28;20046;-70
2023/06/09 07:01:28;;;;;;;93.40;88.38;;;;;;;24.57;37.36;101328.06;5013460;28;20112;-70
2023/06/09 07:03:55;;;;;;;88.78;84.18;;;;;;;24.58;37.44;101326.94;5013795;28;20034;-70
2023/06/09 07:06:20;;;;;;;91.25;86.38;;;;;;;24.59;37.18;101328.56;5013379;28;20030;-70
2023/06/09 07:08:46;;;;;;;91.03;86.25;;;;;;;24.63;37.04;101334.25;5013801;28;20472;-70
2023/06/09 07:11:11;;;;;;;93.20;88.30;;;;;;;24.67;37.23;101331.63;5013026;28;20140;-71
2023/06/09 07:13:37;;;;;;;91.03;86.22;;;;;;;24.69;37.53;101330.19;5028775;28;20062;-70
2023/06/09 07:16:03;;;;;;;96.55;91.68;;;;;;;24.73;37.49;101338.66;5013355;28;20045;-70
2023/06/09 07:18:29;;;;;;;95.20;90.30;;;;;;;24.76;37.77;101329.72;5013163;28;20034;-71
2023/06/09 07:20:54;;;;;;;95.45;90.05;;;;;;;24.79;37.48;101334.56;5013399;28;20498;-71
2023/06/09 07:23:20;;;;;;;95.07;89.78;;;;;;;24.81;37.88;101330.34;5012349;28;20529;-70
2023/06/09 07:25:45;;;;;;;94.40;89.18;;;;;;;24.85;37.94;101336.06;5013423;28;20128;-71
2023/06/09 07:28:11;;;;;;;97.68;92.72;;;;;;;24.88;38.10;101334.59;5012377;28;20048;-70
2023/06/09 07:30:40;;;;;;;97.20;91.80;;;;;;;24.90;37.75;101333.13;5011636;28;20092;-71
2023/06/09 07:33:06;;;;;;;97.78;92.63;;;;;;;24.94;37.49;101336.03;5012373;28;20417;-71
2023/06/09 07:35:32;;;;;;;95.78;90.95;;;;;;;24.97;37.77;101333.47;5012680;28;20681;-70
2023/06/09 07:37:58;;;;;;;95.95;91.05;;;;;;;25.01;38.17;101337.19;5011669;28;20065;-70
2023/06/09 07:40:23;;;;;;;98.07;92.82;;;;;;;25.04;38.52;101333.75;5011757;28;20038;-71
2023/06/09 07:42:48;;;;;;;95.50;90.20;;;;;;;25.09;37.81;101334.72;5011531;28;20546;-70
2023/06/09 07:45:14;;;;;;;97.53;92.68;;;;;;;25.13;37.94;101333.75;5012637;28;20041;-71
2023/06/09 07:47:40;;;;;;;100.22;94.57;;;;;;;25.18;37.61;101346.63;5013130;28;20040;-70
2023/06/09 07:50:06;;;;;;;98.85;93.75;;;;;;;25.23;38.16;101340.94;5012091;28;20109;-71
2023/06/09 07:52:32;;;;;;;102.97;96.95;;;;;;;25.26;38.19;101343.03;4993553;28;20121;-71
2023/06/09 07:54:57;;;;;;;101.32;96.25;;;;;;;25.32;38.51;101340.91;4993127;28;20165;-71
2023/06/09 07:57:23;;;;;;;102.65;97.55;;;;;;;25.35;38.23;101340.25;4993232;28;20390;-71
2023/06/09 07:59:48;;;;;;;98.53;93.40;;;;;;;25.41;38.32;101344.47;4993292;28;20034;-71
2023/06/09 08:02:14;;;;;;;99.20;93.75;;;;;;;25.45;38.00;101332.44;4993579;28;20030;-71
2023/06/09 08:04:40;;;;;;;100.30;95.03;;;;;;;25.51;38.01;101335.03;4993631;28;20459;-71
2023/06/09 08:07:06;;;;;;;98.88;94.00;;;;;;;25.55;38.31;101339.56;4993232;28;20454;-71
2023/06/09 08:09:32;;;;;;;104.97;98.85;;;;;;;25.62;38.32;101339.03;4993073;28;20538;-71
2023/06/09 08:11:57;;;;;;;105.90;100.18;;;;;;;25.66;38.08;101340.81;4993434;28;20030;-70
2023/06/09 08:14:23;;;;;;;103.40;98.05;;;;;;;25.73;38.22;101343.09;4992697;28;20031;-71
2023/06/09 08:16:49;;;;;;;105.28;100.03;;;;;;;25.79;38.09;101335.41;4993396;28;20037;-71
2023/06/09 08:19:14;;;;;;;104.47;99.32;;;;;;;25.85;38.41;101343.22;4993243;28;20030;-71
2023/06/09 08:21:48;;;;;;;105.57;100.20;;;;;;;25.90;38.03;101334.75;4992952;28;20089;-71
2023/06/09 08:24:14;;;;;;;104.88;99.35;;;;;;;25.99;38.37;101333.88;5008101;28;20125;-71
2023/06/09 08:26:41;;;;;;;106.90;101.30;;;;;;;26.05;38.11;101327.00;4992871;28;20027;-70
2023/06/09 08:29:07;;;;;;;107.70;102.05;;;;;;;26.13;38.11;101320.59;4993266;28;20555;-71
2023/06/09 08:31:33;;;;;;;108.22;102.70;;;;;;;26.19;38.11;101322.06;4992710;28;20038;-71
2023/06/09 08:33:58;;;;;;;105.13;99.72;;;;;;;26.26;38.26;101324.31;4991901;28;20030;-71
2023/06/09 08:36:24;;;;;;;106.13;100.65;;;;;;;26.33;37.99;101319.84;4992585;28;20455;-71
2023/06/09 08:38:50;;;;;;;109.70;104.18;;;;;;;26.42;38.10;101322.56;4993026;28;20431;-71
2023/06/09 08:41:16;;;;;;;109.18;103.65;;;;;;;26.50;37.92;101320.88;4992615;28;20438;-71
2023/06/09 08:43:42;;;;;;;107.72;102.22;;;;;;;26.58;37.67;101316.44;4992678;28;20235;-71
2023/06/09 08:46:11;;;;;;;108.35;103.13;;;;;;;26.65;37.61;101313.94;4992954;28;20038;-71
2023/06/09 08:48:41;;;;;;;108.55;102.90;;;;;;;26.73;37.75;101315.84;4992452;28;20080;-71
2023/06/09 08:51:08;;;;;;;106.68;100.75;;;;;;;26.81;37.65;101314.13;4992811;28;20087;-71
2023/06/09 08:53:34;;;;;;;111.70;106.00;;;;;;;26.90;37.23;101310.13;4992615;28;20045;-71
2023/06/09 08:56:01;;;;;;;108.53;103.43;;;;;;;26.98;37.25;101311.22;4992980;28;20042;-71
2023/06/09 08:58:27;;;;;;;117.90;111.38;;;;;;;27.06;37.25;101313.09;4992400;28;20475;-71
2023/06/09 09:00:53;;;;;;;112.07;106.90;;;;;;;27.14;37.22;101308.59;4992589;28;20463;-71
2023/06/09 09:03:20;;;;;;;115.45;109.82;;;;;;;27.23;37.00;101306.59;4992698;28;20038;-71
2023/06/09 09:05:46;;;;;;;116.32;110.65;;;;;;;27.32;36.48;101304.53;4992562;28;20034;-71
2023/06/09 09:08:15;;;;;;;115.97;110.13;;;;;;;27.41;36.91;101299.69;4992707;28;20073;-71
2023/06/09 09:10:41;;;;;;;119.47;113.57;;;;;;;27.50;36.45;101301.56;4992065;28;20035;-72
2023/06/09 09:13:10;;;;;;;118.25;112.60;;;;;;;27.59;36.62;101303.09;4992765;28;20364;-71
2023/06/09 09:15:37;;;;;;;118.75;113.15;;;;;;;27.68;36.35;101297.44;4992209;28;20058;-71
2023/06/09 09:18:07;;;;;;;121.75;115.95;;;;;;;27.77;36.20;101292.59;4992878;28;20041;-71
2023/06/09 09:20:34;;;;;;;119.80;113.65;;;;;;;27.87;36.44;101299.69;4992260;28;20069;-71
2023/06/09 09:23:02;;;;;;;117.83;112.27;;;;;;;27.95;36.53;101301.53;4992351;28;20042;-71
2023/06/09 09:25:28;;;;;;;120.60;114.63;;;;;;;28.03;36.27;101289.47;4991869;28;20023;-72
2023/06/09 09:28:04;;;;;;;124.55;118.70;;;;;;;28.14;35.98;101300.09;4992266;28;20073;-72
2023/06/09 09:30:55;;;;;;;125.00;118.57;;;;;;;28.23;35.99;101300.81;4992031;28;20022;-72
2023/06/09 09:33:23;;;;;;;124.00;118.28;;;;;;;28.32;35.79;101284.78;4992511;28;20105;-72
2023/06/09 09:35:59;;;;;;;122.85;117.00;;;;;;;28.41;35.80;101296.59;4992448;28;20038;-71
2023/06/09 09:38:29;;;;;;;125.13;119.13;;;;;;;28.52;35.67;101293.34;4991831;28;20129;-72
2023/06/09 09:40:57;;;;;;;123.85;117.80;;;;;;;28.62;35.80;101296.44;4992079;28;20380;-71
2023/06/09 09:43:28;;;;;;;126.88;120.72;;;;;;;28.73;36.00;101284.81;4991970;28;20034;-71
2023/06/09 09:45:55;;;;;;;128.05;122.03;;;;;;;28.82;35.52;101275.16;4992380;28;20030;-71
2023/06/09 09:48:23;;;;;;;131.40;125.07;;;;;;;28.92;35.11;101287.75;4992302;28;20027;-71
2023/06/09 09:50:51;;;;;;;129.07;122.90;;;;;;;29.02;35.06;101289.22;4991442;28;20081;-71
2023/06/09 09:53:17;;;;;;;135.75;129.55;;;;;;;29.12;35.23;101285.94;4992313;28;20042;-71
2023/06/09 09:55:45;;;;;;;127.97;121.43;;;;;;;29.21;34.83;101283.81;4991905;28;20117;-71
2023/06/09 09:58:12;;;;;;;131.18;125.13;;;;;;;29.30;34.73;101278.06;4992106;28;20494;-71
2023/06/09 10:00:40;;;;;;;130.88;124.97;;;;;;;29.39;35.00;101281.50;4991649;28;20030;-71
2023/06/09 10:03:08;;;;;;;134.40;128.18;;;;;;;29.50;34.86;101281.78;4991982;28;20470;-71
2023/06/09 10:05:37;;;;;;;130.73;124.75;;;;;;;29.61;34.56;101279.25;4991683;28;20065;-72
2023/06/09 10:08:05;;;;;;;136.13;128.43;;;;;;;29.69;34.86;101276.31;4995421;28;20041;-71
2023/06/09 10:10:31;;;;;;;135.88;129.52;;;;;;;29.80;33.67;101278.56;4993576;28;20039;-71
2023/06/09 10:12:57;;;;;;;137.10;130.52;;;;;;;29.88;33.36;101275.56;4995019;28;20116;-71
2023/06/09 10:15:24;;;;;;;134.48;128.20;;;;;;;29.98;33.42;101269.44;4995718;28;20098;-71
2023/06/09 10:17:52;;;;;;;140.35;133.98;;;;;;;30.08;33.70;101262.50;4994874;28;20077;-71
2023/06/09 10:20:18;;;;;;;133.85;127.53;;;;;;;30.18;34.11;101261.94;4995550;28;20616;-71
2023/06/09 10:22:44;;;;;;;138.73;131.68;;;;;;;30.28;34.29;101268.16;4995248;28;20030;-71
2023/06/09 10:25:12;;;;;;;142.38;135.80;;;;;;;30.36;33.62;101259.56;4995289;28;20037;-71
2023/06/09 10:27:38;;;;;;;138.73;132.23;;;;;;;30.46;33.92;101262.94;4994984;28;20129;-71
2023/06/09 10:30:05;;;;;;;142.45;135.77;;;;;;;30.55;32.95;101257.97;4995107;28;20459;-71
2023/06/09 10:32:34;;;;;;;141.77;135.20;;;;;;;30.64;32.36;101264.13;5004575;28;20048;-71
2023/06/09 10:35:02;;;;;;;138.65;132.32;;;;;;;30.73;32.25;101247.19;5014197;28;20025;-71
2023/06/09 10:37:32;;;;;;;140.88;134.27;;;;;;;30.83;32.40;101252.19;5013960;28;20549;-71
2023/06/09 10:40:17;;;;;;;145.20;138.35;;;;;;;30.93;32.02;101257.16;5013622;28;20045;-71
2023/06/09 10:42:52;;;;;;;147.35;140.65;;;;;;;31.03;32.72;101245.38;5014002;28;20084;-72
2023/06/09 10:45:19;;;;;;;145.77;138.88;;;;;;;31.12;31.66;101249.91;5014017;28;20089;-72
2023/06/09 10:47:48;;;;;;;143.32;136.70;;;;;;;31.20;31.79;101244.09;5013663;28;20493;-72
2023/06/09 10:50:26;;;;;;;146.32;139.70;;;;;;;31.30;32.13;101242.69;5013915;28;20041;-71
2023/06/09 10:52:54;;;;;;;;;;;;;;;31.38;31.87;101238.03;5013415;28;20030;-72
2023/06/09 10:55:22;;;;;;;141.43;134.88;;;;;;;31.45;31.95;101238.97;5014761;28;19917;-71
2023/06/09 10:57:49;;;;;;;144.40;137.40;;;;;;;31.54;31.92;101229.53;5012832;28;20109;-72
2023/06/09 11:00:15;;;;;;;150.77;143.80;;;;;;;31.64;30.95;101240.06;5013988;28;20033;-72
2023/06/09 11:02:44;;;;;;;150.27;143.48;;;;;;;31.73;32.23;101234.19;5013069;28;20037;-72